Excelsior, Minnesota
Current Conditions -  °F | °C
As of 7:53 PM on Saturday 25 Oct 2014 (Local Time) from KFCM Reporting Station
Clear Clear  
Wind Chill: 51°   Ceiling: Unl
Heat Index: 51°   Visibility: 10mi
Dew Point: 27°   Wind: 7mph
Humidity: 39%   Direction: 290°WNW
Pressure: 30.04"   Gusts: NA
Location:  44.9°N, 93.57°W
Report Text: KFCM 260053Z 29006KT 10SM CLR 11/M03 A3004 RMK AO2 SLP176 T01061028
Loading
Personal Weather Stations






























Interactive Weather Map
Tropical Storm Tracking
New forecast layout! Learn more

10-Day Weather Forecast

Advertisements
Track Severe Weather on mobile